sim
Sign-in with your pilot id or email,
or register
Callsign
Passwort

Schedule Details

Flight Number: RYR8996 (2)
Departure: Dublin Airport (EIDW) at 16:10
Arrival: Munich Airport (EDDM) at 18:30
Route: Ryanair Passenger Schedule. Enter filed route here before submitting Pirep.

Weather Information
Getting current METAR information for EIDW 220430Z VRB03KT 9999 SCT010 BKN014 13/11 Q1009 NOSIG
Getting current METAR information for EDDM 220420Z VRB02KT 2000 1000N R08L/0750V1300N R08R/P2000N BCFG FEW002 08/08 Q1014 TEMPO 1200

Schedule Frequency

Route Map